sensor_id;sensor_type;location;lat;lon;timestamp;pressure;altitude;pressure_sealevel;temperature;humidity
76994;BME280;66749;47.406;18.822;2023-05-10T00:00:20;100572.66;;;12.50;66.72
76994;BME280;66749;47.406;18.822;2023-05-10T00:00:52;100572.94;;;12.46;66.60
76994;BME280;66749;47.406;18.822;2023-05-10T00:01:23;100567.16;;;12.41;66.82
76994;BME280;66749;47.406;18.822;2023-05-10T00:01:54;100575.56;;;12.46;66.70
76994;BME280;66749;47.406;18.822;2023-05-10T00:02:24;100566.97;;;12.44;66.87
76994;BME280;66749;47.406;18.822;2023-05-10T00:02:55;100563.41;;;12.45;66.73
76994;BME280;66749;47.406;18.822;2023-05-10T00:03:25;100573.88;;;12.45;66.67
76994;BME280;66749;47.406;18.822;2023-05-10T00:03:56;100573.25;;;12.41;66.93
76994;BME280;66749;47.406;18.822;2023-05-10T00:04:27;100570.72;;;12.40;66.86
76994;BME280;66749;47.406;18.822;2023-05-10T00:04:57;100571.47;;;12.42;66.87
76994;BME280;66749;47.406;18.822;2023-05-10T00:05:28;100562.66;;;12.43;66.68
76994;BME280;66749;47.406;18.822;2023-05-10T00:05:59;100574.06;;;12.42;67.01
76994;BME280;66749;47.406;18.822;2023-05-10T00:06:29;100578.38;;;12.43;66.89
76994;BME280;66749;47.406;18.822;2023-05-10T00:07:00;100573.41;;;12.38;67.13
76994;BME280;66749;47.406;18.822;2023-05-10T00:07:31;100573.59;;;12.35;67.15
76994;BME280;66749;47.406;18.822;2023-05-10T00:08:02;100569.22;;;12.36;67.15
76994;BME280;66749;47.406;18.822;2023-05-10T00:08:32;100561.25;;;12.37;67.31
76994;BME280;66749;47.406;18.822;2023-05-10T00:09:03;100562.09;;;12.38;67.24
76994;BME280;66749;47.406;18.822;2023-05-10T00:09:34;100565.56;;;12.38;67.04
76994;BME280;66749;47.406;18.822;2023-05-10T00:10:05;100563.97;;;12.36;67.26
76994;BME280;66749;47.406;18.822;2023-05-10T00:10:35;100565.84;;;12.34;67.21
76994;BME280;66749;47.406;18.822;2023-05-10T00:11:07;100564.06;;;12.34;67.32
76994;BME280;66749;47.406;18.822;2023-05-10T00:11:38;100569.66;;;12.28;67.60
76994;BME280;66749;47.406;18.822;2023-05-10T00:12:08;100569.56;;;12.30;67.58
76994;BME280;66749;47.406;18.822;2023-05-10T00:12:39;100577.31;;;12.31;67.33
76994;BME280;66749;47.406;18.822;2023-05-10T00:13:10;100566.22;;;12.28;67.54
76994;BME280;66749;47.406;18.822;2023-05-10T00:13:40;100569.66;;;12.28;67.58
76994;BME280;66749;47.406;18.822;2023-05-10T00:14:11;100567.78;;;12.30;67.43
76994;BME280;66749;47.406;18.822;2023-05-10T00:14:42;100568.72;;;12.29;67.56
76994;BME280;66749;47.406;18.822;2023-05-10T00:15:12;100572.94;;;12.32;67.58
76994;BME280;66749;47.406;18.822;2023-05-10T00:15:43;100573.03;;;12.30;67.52
76994;BME280;66749;47.406;18.822;2023-05-10T00:16:13;100566.00;;;12.31;67.50
76994;BME280;66749;47.406;18.822;2023-05-10T00:16:44;100557.22;;;12.32;67.52
76994;BME280;66749;47.406;18.822;2023-05-10T00:17:15;100564.53;;;12.27;67.51
76994;BME280;66749;47.406;18.822;2023-05-10T00:17:45;100561.91;;;12.27;67.82
76994;BME280;66749;47.406;18.822;2023-05-10T00:18:16;100562.03;;;12.25;67.59
76994;BME280;66749;47.406;18.822;2023-05-10T00:18:47;100560.97;;;12.28;67.47
76994;BME280;66749;47.406;18.822;2023-05-10T00:19:17;100565.28;;;12.29;67.53
76994;BME280;66749;47.406;18.822;2023-05-10T00:19:48;100562.84;;;12.26;67.67
76994;BME280;66749;47.406;18.822;2023-05-10T00:20:18;100565.75;;;12.21;67.80
76994;BME280;66749;47.406;18.822;2023-05-10T00:20:49;100559.88;;;12.17;68.07
76994;BME280;66749;47.406;18.822;2023-05-10T00:21:19;100563.22;;;12.19;67.84
76994;BME280;66749;47.406;18.822;2023-05-10T00:21:50;100563.22;;;12.19;67.74
76994;BME280;66749;47.406;18.822;2023-05-10T00:22:21;100565.84;;;12.19;67.94
76994;BME280;66749;47.406;18.822;2023-05-10T00:22:51;100569.50;;;12.17;68.03
76994;BME280;66749;47.406;18.822;2023-05-10T00:23:22;100567.72;;;12.17;68.28
76994;BME280;66749;47.406;18.822;2023-05-10T00:23:53;100562.38;;;12.19;68.11
76994;BME280;66749;47.406;18.822;2023-05-10T00:24:23;100564.06;;;12.20;68.08
76994;BME280;66749;47.406;18.822;2023-05-10T00:24:54;100563.31;;;12.18;68.13
76994;BME280;66749;47.406;18.822;2023-05-10T00:25:24;100563.38;;;12.16;68.25
76994;BME280;66749;47.406;18.822;2023-05-10T00:25:55;100564.31;;;12.15;68.24
76994;BME280;66749;47.406;18.822;2023-05-10T00:26:26;100561.72;;;12.15;68.17
76994;BME280;66749;47.406;18.822;2023-05-10T00:26:57;100566.94;;;12.15;68.29
76994;BME280;66749;47.406;18.822;2023-05-10T00:27:27;100562.75;;;12.13;68.34
76994;BME280;66749;47.406;18.822;2023-05-10T00:27:58;100557.78;;;12.08;68.45
76994;BME280;66749;47.406;18.822;2023-05-10T00:28:28;100561.31;;;12.07;68.44
76994;BME280;66749;47.406;18.822;2023-05-10T00:28:59;100558.72;;;12.07;68.50
76994;BME280;66749;47.406;18.822;2023-05-10T00:29:30;100557.97;;;12.05;68.46
76994;BME280;66749;47.406;18.822;2023-05-10T00:30:02;100563.94;;;12.07;68.47
76994;BME280;66749;47.406;18.822;2023-05-10T00:30:32;100561.16;;;12.10;68.30
76994;BME280;66749;47.406;18.822;2023-05-10T00:31:03;100559.47;;;12.09;68.57
76994;BME280;66749;47.406;18.822;2023-05-10T00:31:33;100551.91;;;12.05;68.36
76994;BME280;66749;47.406;18.822;2023-05-10T00:32:04;100560.69;;;12.04;68.26
76994;BME280;66749;47.406;18.822;2023-05-10T00:32:35;100560.94;;;11.99;68.80
76994;BME280;66749;47.406;18.822;2023-05-10T00:33:05;100561.88;;;11.98;68.84
76994;BME280;66749;47.406;18.822;2023-05-10T00:33:36;100556.66;;;11.98;68.93
76994;BME280;66749;47.406;18.822;2023-05-10T00:34:06;100559.34;;;11.97;69.06
76994;BME280;66749;47.406;18.822;2023-05-10T00:34:37;100554.22;;;11.95;69.04
76994;BME280;66749;47.406;18.822;2023-05-10T00:35:08;100558.03;;;11.89;69.17
76994;BME280;66749;47.406;18.822;2023-05-10T00:35:38;100560.66;;;11.89;69.37
76994;BME280;66749;47.406;18.822;2023-05-10T00:36:09;100557.19;;;11.89;69.49
76994;BME280;66749;47.406;18.822;2023-05-10T00:36:40;100553.91;;;11.85;69.67
76994;BME280;66749;47.406;18.822;2023-05-10T00:37:11;100557.28;;;11.87;69.45
76994;BME280;66749;47.406;18.822;2023-05-10T00:37:41;100564.19;;;11.88;69.65
76994;BME280;66749;47.406;18.822;2023-05-10T00:38:12;100559.22;;;11.84;69.47
76994;BME280;66749;47.406;18.822;2023-05-10T00:38:43;100560.06;;;11.84;69.47
76994;BME280;66749;47.406;18.822;2023-05-10T00:39:14;100559.31;;;11.82;69.63
76994;BME280;66749;47.406;18.822;2023-05-10T00:39:44;100558.50;;;11.82;69.68
76994;BME280;66749;47.406;18.822;2023-05-10T00:40:15;100555.88;;;11.82;70.04
76994;BME280;66749;47.406;18.822;2023-05-10T00:40:46;100554.09;;;11.82;69.69
76994;BME280;66749;47.406;18.822;2023-05-10T00:41:16;100554.00;;;11.84;69.97
76994;BME280;66749;47.406;18.822;2023-05-10T00:41:47;100559.97;;;11.86;69.67
76994;BME280;66749;47.406;18.822;2023-05-10T00:42:17;100561.00;;;11.83;69.54
76994;BME280;66749;47.406;18.822;2023-05-10T00:42:48;100562.94;;;11.80;69.44
76994;BME280;66749;47.406;18.822;2023-05-10T00:43:18;100562.03;;;11.81;69.54
76994;BME280;66749;47.406;18.822;2023-05-10T00:43:49;100561.00;;;11.83;69.76
76994;BME280;66749;47.406;18.822;2023-05-10T00:44:20;100556.94;;;11.78;69.70
76994;BME280;66749;47.406;18.822;2023-05-10T00:44:50;100555.25;;;11.77;70.12
76994;BME280;66749;47.406;18.822;2023-05-10T00:45:21;100562.94;;;11.80;69.86
76994;BME280;66749;47.406;18.822;2023-05-10T00:45:52;100560.38;;;11.78;69.94
76994;BME280;66749;47.406;18.822;2023-05-10T00:46:23;100560.47;;;11.77;69.85
76994;BME280;66749;47.406;18.822;2023-05-10T00:46:54;100552.09;;;11.72;69.94
76994;BME280;66749;47.406;18.822;2023-05-10T00:47:24;100552.84;;;11.74;70.07
76994;BME280;66749;47.406;18.822;2023-05-10T00:47:55;100562.56;;;11.72;70.39
76994;BME280;66749;47.406;18.822;2023-05-10T00:48:26;100563.19;;;11.75;70.61
76994;BME280;66749;47.406;18.822;2023-05-10T00:48:57;100564.97;;;11.75;69.98
76994;BME280;66749;47.406;18.822;2023-05-10T00:49:28;100554.50;;;11.75;70.50
76994;BME280;66749;47.406;18.822;2023-05-10T00:49:59;100559.16;;;11.70;70.49
76994;BME280;66749;47.406;18.822;2023-05-10T00:50:32;100559.34;;;11.66;70.55
76994;BME280;66749;47.406;18.822;2023-05-10T00:51:03;100560.94;;;11.69;70.27
76994;BME280;66749;47.406;18.822;2023-05-10T00:51:34;100559.16;;;11.70;70.50
76994;BME280;66749;47.406;18.822;2023-05-10T00:52:04;100553.94;;;11.70;70.67
76994;BME280;66749;47.406;18.822;2023-05-10T00:52:35;100558.16;;;11.72;70.72
76994;BME280;66749;47.406;18.822;2023-05-10T00:53:06;100562.34;;;11.75;70.47
76994;BME280;66749;47.406;18.822;2023-05-10T00:53:37;100560.69;;;11.74;70.57
76994;BME280;66749;47.406;18.822;2023-05-10T00:54:10;100556.28;;;11.74;70.20
76994;BME280;66749;47.406;18.822;2023-05-10T00:54:42;100553.00;;;11.71;70.22
76994;BME280;66749;47.406;18.822;2023-05-10T00:55:13;100557.31;;;11.72;70.21
76994;BME280;66749;47.406;18.822;2023-05-10T00:55:43;100551.16;;;11.73;70.12
76994;BME280;66749;47.406;18.822;2023-05-10T00:56:15;100550.22;;;11.74;70.09
76994;BME280;66749;47.406;18.822;2023-05-10T00:56:46;100553.56;;;11.76;70.19
76994;BME280;66749;47.406;18.822;2023-05-10T00:57:19;100546.88;;;11.72;70.02
76994;BME280;66749;47.406;18.822;2023-05-10T00:57:50;100552.25;;;11.68;69.97
76994;BME280;66749;47.406;18.822;2023-05-10T00:58:20;100548.22;;;11.63;70.70
76994;BME280;66749;47.406;18.822;2023-05-10T00:58:51;100547.31;;;11.64;70.67
76994;BME280;66749;47.406;18.822;2023-05-10T00:59:22;100550.91;;;11.61;70.90
76994;BME280;66749;47.406;18.822;2023-05-10T00:59:53;100556.00;;;11.64;70.63
76994;BME280;66749;47.406;18.822;2023-05-10T01:00:24;100544.69;;;11.64;70.65
76994;BME280;66749;47.406;18.822;2023-05-10T01:00:55;100556.63;;;11.68;70.47
76994;BME280;66749;47.406;18.822;2023-05-10T01:01:28;100545.34;;;11.67;70.77
76994;BME280;66749;47.406;18.822;2023-05-10T01:01:59;100554.22;;;11.65;70.80
76994;BME280;66749;47.406;18.822;2023-05-10T01:02:29;100547.56;;;11.59;70.74
76994;BME280;66749;47.406;18.822;2023-05-10T01:03:00;100550.91;;;11.61;70.59
76994;BME280;66749;47.406;18.822;2023-05-10T01:03:32;100549.06;;;11.63;70.99
76994;BME280;66749;47.406;18.822;2023-05-10T01:04:03;100553.53;;;11.61;70.61
76994;BME280;66749;47.406;18.822;2023-05-10T01:04:34;100548.66;;;11.55;71.06
76994;BME280;66749;47.406;18.822;2023-05-10T01:05:06;100549.59;;;11.54;70.97
76994;BME280;66749;47.406;18.822;2023-05-10T01:05:37;100549.78;;;11.51;71.26
76994;BME280;66749;47.406;18.822;2023-05-10T01:06:08;100549.59;;;11.54;71.23
76994;BME280;66749;47.406;18.822;2023-05-10T01:06:41;100554.06;;;11.52;71.14
76994;BME280;66749;47.406;18.822;2023-05-10T01:07:12;100545.63;;;11.47;71.22
76994;BME280;66749;47.406;18.822;2023-05-10T01:07:42;100556.38;;;11.43;71.45
76994;BME280;66749;47.406;18.822;2023-05-10T01:08:13;100546.84;;;11.42;71.81
76994;BME280;66749;47.406;18.822;2023-05-10T01:08:44;100545.09;;;11.42;71.78
76994;BME280;66749;47.406;18.822;2023-05-10T01:09:15;100553.16;;;11.37;71.91
76994;BME280;66749;47.406;18.822;2023-05-10T01:09:45;100553.34;;;11.34;72.33
76994;BME280;66749;47.406;18.822;2023-05-10T01:10:16;100551.59;;;11.35;71.83
76994;BME280;66749;47.406;18.822;2023-05-10T01:10:47;100548.97;;;11.35;71.93
76994;BME280;66749;47.406;18.822;2023-05-10T01:11:19;100545.34;;;11.22;72.36
76994;BME280;66749;47.406;18.822;2023-05-10T01:11:50;100553.00;;;11.25;72.27
76994;BME280;66749;47.406;18.822;2023-05-10T01:12:20;100552.94;;;11.26;72.18
76994;BME280;66749;47.406;18.822;2023-05-10T01:12:51;100549.31;;;11.29;72.38
76994;BME280;66749;47.406;18.822;2023-05-10T01:13:37;100547.63;;;11.28;72.26
76994;BME280;66749;47.406;18.822;2023-05-10T01:14:08;100546.78;;;11.27;71.97
76994;BME280;66749;47.406;18.822;2023-05-10T01:14:39;100546.59;;;11.30;72.32
76994;BME280;66749;47.406;18.822;2023-05-10T01:15:11;100550.25;;;11.28;72.17
76994;BME280;66749;47.406;18.822;2023-05-10T01:15:42;100556.31;;;11.28;72.19
76994;BME280;66749;47.406;18.822;2023-05-10T01:16:13;100548.63;;;11.25;72.63
76994;BME280;66749;47.406;18.822;2023-05-10T01:16:45;100547.97;;;11.22;72.58
76994;BME280;66749;47.406;18.822;2023-05-10T01:17:18;100543.50;;;11.24;72.23
76994;BME280;66749;47.406;18.822;2023-05-10T01:17:49;100551.19;;;11.27;72.33
76994;BME280;66749;47.406;18.822;2023-05-10T01:18:20;100543.50;;;11.24;72.50
76994;BME280;66749;47.406;18.822;2023-05-10T01:18:52;100551.44;;;11.22;72.71
76994;BME280;66749;47.406;18.822;2023-05-10T01:19:25;100543.50;;;11.24;72.29
76994;BME280;66749;47.406;18.822;2023-05-10T01:19:56;100549.47;;;11.26;72.31
76994;BME280;66749;47.406;18.822;2023-05-10T01:20:35;100540.88;;;11.24;72.22
76994;BME280;66749;47.406;18.822;2023-05-10T01:21:55;100543.59;;;11.22;72.68
76994;BME280;66749;47.406;18.822;2023-05-10T01:34:07;100549.25;;;11.15;73.36
76994;BME280;66749;47.406;18.822;2023-05-10T01:34:55;100537.22;;;11.12;73.16
76994;BME280;66749;47.406;18.822;2023-05-10T01:35:43;100545.69;;;11.16;73.50
76994;BME280;66749;47.406;18.822;2023-05-10T01:36:30;100545.53;;;11.19;73.24
76994;BME280;66749;47.406;18.822;2023-05-10T01:37:07;100546.28;;;11.21;73.05
76994;BME280;66749;47.406;18.822;2023-05-10T01:38:01;100543.69;;;11.21;72.90
76994;BME280;66749;47.406;18.822;2023-05-10T01:38:44;100548.16;;;11.19;72.45
76994;BME280;66749;47.406;18.822;2023-05-10T01:39:36;100556.16;;;11.16;72.81
76994;BME280;66749;47.406;18.822;2023-05-10T01:40:51;100550.31;;;11.10;73.49
76994;BME280;66749;47.406;18.822;2023-05-10T01:41:39;100549.25;;;11.15;73.33
76994;BME280;66749;47.406;18.822;2023-05-10T01:42:20;100550.69;;;11.20;72.96
76994;BME280;66749;47.406;18.822;2023-05-10T01:42:59;100540.31;;;11.19;72.98
76994;BME280;66749;47.406;18.822;2023-05-10T01:43:39;100550.19;;;11.14;73.34
76994;BME280;66749;47.406;18.822;2023-05-10T01:44:29;100549.16;;;11.16;73.01
76994;BME280;66749;47.406;18.822;2023-05-10T01:45:27;100553.72;;;11.13;73.30
76994;BME280;66749;47.406;18.822;2023-05-10T01:46:05;100552.28;;;11.07;74.03
76994;BME280;66749;47.406;18.822;2023-05-10T01:46:41;100551.34;;;11.08;74.03
76994;BME280;66749;47.406;18.822;2023-05-10T01:47:20;100550.31;;;11.10;73.81
76994;BME280;66749;47.406;18.822;2023-05-10T01:48:11;100549.25;;;11.15;73.51
76994;BME280;66749;47.406;18.822;2023-05-10T01:48:47;100548.31;;;11.16;73.32
76994;BME280;66749;47.406;18.822;2023-05-10T01:49:25;100547.47;;;11.15;73.40
76994;BME280;66749;47.406;18.822;2023-05-10T01:50:02;100539.72;;;11.14;73.26
76994;BME280;66749;47.406;18.822;2023-05-10T01:50:35;100540.38;;;11.17;72.90
76994;BME280;66749;47.406;18.822;2023-05-10T01:51:08;100540.38;;;11.17;73.11
76994;BME280;66749;47.406;18.822;2023-05-10T01:51:49;100543.09;;;11.16;73.25
76994;BME280;66749;47.406;18.822;2023-05-10T01:52:39;100542.34;;;11.14;73.65
76994;BME280;66749;47.406;18.822;2023-05-10T01:53:12;100546.72;;;11.13;73.18
76994;BME280;66749;47.406;18.822;2023-05-10T01:53:49;100545.78;;;11.14;73.25
76994;BME280;66749;47.406;18.822;2023-05-10T01:54:24;100539.81;;;11.12;73.49
76994;BME280;66749;47.406;18.822;2023-05-10T01:55:04;100550.00;;;11.17;73.68
76994;BME280;66749;47.406;18.822;2023-05-10T01:55:43;100548.31;;;11.16;73.30
76994;BME280;66749;47.406;18.822;2023-05-10T01:56:16;100543.84;;;11.18;73.02
76994;BME280;66749;47.406;18.822;2023-05-10T01:56:56;100538.69;;;11.16;73.12
76994;BME280;66749;47.406;18.822;2023-05-10T01:57:33;100536.38;;;11.11;73.46
76994;BME280;66749;47.406;18.822;2023-05-10T01:58:07;100543.28;;;11.13;73.49
76994;BME280;66749;47.406;18.822;2023-05-10T01:58:41;100538.13;;;11.11;73.29
76994;BME280;66749;47.406;18.822;2023-05-10T01:59:17;100537.22;;;11.12;73.26
76994;BME280;66749;47.406;18.822;2023-05-10T01:59:50;100541.59;;;11.11;73.08
76994;BME280;66749;47.406;18.822;2023-05-10T02:00:23;100539.72;;;11.14;73.44
76994;BME280;66749;47.406;18.822;2023-05-10T02:00:55;100543.84;;;11.18;73.00
76994;BME280;66749;47.406;18.822;2023-05-10T02:01:29;100535.25;;;11.16;73.42
76994;BME280;66749;47.406;18.822;2023-05-10T02:02:01;100539.81;;;11.12;73.59
76994;BME280;66749;47.406;18.822;2023-05-10T02:02:39;100531.16;;;11.11;73.57
76994;BME280;66749;47.406;18.822;2023-05-10T02:03:11;100538.13;;;11.11;73.53
76994;BME280;66749;47.406;18.822;2023-05-10T02:03:44;100532.81;;;11.13;73.71
76994;BME280;66749;47.406;18.822;2023-05-10T02:04:16;100533.66;;;11.13;73.47
76994;BME280;66749;47.406;18.822;2023-05-10T02:04:49;100537.22;;;11.12;73.31
76994;BME280;66749;47.406;18.822;2023-05-10T02:05:21;100535.59;;;11.09;73.91
76994;BME280;66749;47.406;18.822;2023-05-10T02:05:54;100536.44;;;11.10;73.73
76994;BME280;66749;47.406;18.822;2023-05-10T02:06:27;100540.66;;;11.13;73.37
76994;BME280;66749;47.406;18.822;2023-05-10T02:06:57;100529.38;;;11.12;73.22
76994;BME280;66749;47.406;18.822;2023-05-10T02:07:28;100535.44;;;11.13;73.66
76994;BME280;66749;47.406;18.822;2023-05-10T02:08:00;100531.16;;;11.11;73.36
76994;BME280;66749;47.406;18.822;2023-05-10T02:08:33;100532.22;;;11.07;73.63
76994;BME280;66749;47.406;18.822;2023-05-10T02:09:07;100538.38;;;11.06;73.75
76994;BME280;66749;47.406;18.822;2023-05-10T02:09:41;100536.53;;;11.08;73.63
76994;BME280;66749;47.406;18.822;2023-05-10T02:10:15;100534.66;;;11.10;73.57
76994;BME280;66749;47.406;18.822;2023-05-10T02:10:48;100531.28;;;11.08;73.70
76994;BME280;66749;47.406;18.822;2023-05-10T02:11:19;100530.38;;;11.09;73.52
76994;BME280;66749;47.406;18.822;2023-05-10T02:11:53;100532.97;;;11.09;73.83
76994;BME280;66749;47.406;18.822;2023-05-10T02:12:25;100526.06;;;11.08;73.74
76994;BME280;66749;47.406;18.822;2023-05-10T02:12:59;100526.81;;;11.10;73.68
76994;BME280;66749;47.406;18.822;2023-05-10T02:13:32;100531.28;;;11.08;73.74
76994;BME280;66749;47.406;18.822;2023-05-10T02:14:08;100530.22;;;11.13;73.51
76994;BME280;66749;47.406;18.822;2023-05-10T02:14:41;100525.72;;;11.15;73.36
76994;BME280;66749;47.406;18.822;2023-05-10T02:15:17;100526.56;;;11.15;73.52
76994;BME280;66749;47.406;18.822;2023-05-10T02:15:50;100527.50;;;11.14;73.22
76994;BME280;66749;47.406;18.822;2023-05-10T02:16:24;100529.44;;;11.10;73.38
76994;BME280;66749;47.406;18.822;2023-05-10T02:16:58;100520.75;;;11.10;73.71
76994;BME280;66749;47.406;18.822;2023-05-10T02:17:31;100526.56;;;11.15;73.58
76994;BME280;66749;47.406;18.822;2023-05-10T02:18:04;100523.03;;;11.16;73.23
76994;BME280;66749;47.406;18.822;2023-05-10T02:18:36;100522.19;;;11.16;73.35
76994;BME280;66749;47.406;18.822;2023-05-10T02:19:07;100523.03;;;11.16;72.94
76994;BME280;66749;47.406;18.822;2023-05-10T02:19:41;100522.03;;;11.19;72.74
76994;BME280;66749;47.406;18.822;2023-05-10T02:20:13;100514.19;;;11.19;72.54
76994;BME280;66749;47.406;18.822;2023-05-10T02:20:46;100522.09;;;11.17;72.58
76994;BME280;66749;47.406;18.822;2023-05-10T02:21:19;100520.41;;;11.16;72.85
76994;BME280;66749;47.406;18.822;2023-05-10T02:21:51;100519.75;;;11.13;72.84
76994;BME280;66749;47.406;18.822;2023-05-10T02:22:22;100520.50;;;11.15;72.61
76994;BME280;66749;47.406;18.822;2023-05-10T02:22:55;100518.16;;;11.10;73.14
76994;BME280;66749;47.406;18.822;2023-05-10T02:23:28;100522.53;;;11.09;73.30
76994;BME280;66749;47.406;18.822;2023-05-10T02:24:02;100520.09;;;11.06;73.78
76994;BME280;66749;47.406;18.822;2023-05-10T02:24:35;100514.03;;;11.06;73.76
76994;BME280;66749;47.406;18.822;2023-05-10T02:25:08;100516.66;;;11.06;73.54
76994;BME280;66749;47.406;18.822;2023-05-10T02:25:41;100517.69;;;11.03;73.73
76994;BME280;66749;47.406;18.822;2023-05-10T02:26:14;100517.69;;;11.03;73.81
76994;BME280;66749;47.406;18.822;2023-05-10T02:26:47;100519.41;;;11.03;73.90
76994;BME280;66749;47.406;18.822;2023-05-10T02:27:20;100522.72;;;11.06;74.01
76994;BME280;66749;47.406;18.822;2023-05-10T02:27:55;100518.25;;;11.08;73.80
76994;BME280;66749;47.406;18.822;2023-05-10T02:28:27;100517.31;;;11.09;73.67
76994;BME280;66749;47.406;18.822;2023-05-10T02:28:58;100522.53;;;11.09;73.88
76994;BME280;66749;47.406;18.822;2023-05-10T02:29:34;100517.41;;;11.08;73.70
76994;BME280;66749;47.406;18.822;2023-05-10T02:30:06;100520.84;;;11.08;73.72
76994;BME280;66749;47.406;18.822;2023-05-10T02:30:37;100519.16;;;11.07;73.85
76994;BME280;66749;47.406;18.822;2023-05-10T02:31:10;100519.16;;;11.07;73.77
76994;BME280;66749;47.406;18.822;2023-05-10T02:31:41;100513.75;;;11.10;73.73
76994;BME280;66749;47.406;18.822;2023-05-10T02:32:14;100512.84;;;11.11;73.79
76994;BME280;66749;47.406;18.822;2023-05-10T02:32:46;100515.28;;;11.15;73.57
76994;BME280;66749;47.406;18.822;2023-05-10T02:33:20;100518.00;;;11.13;73.43
76994;BME280;66749;47.406;18.822;2023-05-10T02:33:53;100513.59;;;11.14;73.26
76994;BME280;66749;47.406;18.822;2023-05-10T02:34:26;100513.50;;;11.15;73.31
76994;BME280;66749;47.406;18.822;2023-05-10T02:34:59;100515.19;;;11.16;73.10
76994;BME280;66749;47.406;18.822;2023-05-10T02:35:32;100514.53;;;11.13;73.31
76994;BME280;66749;47.406;18.822;2023-05-10T02:36:04;100514.44;;;11.14;73.13
76994;BME280;66749;47.406;18.822;2023-05-10T02:36:37;100517.91;;;11.15;73.03
76994;BME280;66749;47.406;18.822;2023-05-10T02:37:09;100514.34;;;11.16;72.86
76994;BME280;66749;47.406;18.822;2023-05-10T02:37:41;100516.97;;;11.16;73.22
76994;BME280;66749;47.406;18.822;2023-05-10T02:38:13;100518.84;;;11.14;73.28
76994;BME280;66749;47.406;18.822;2023-05-10T02:38:46;100521.44;;;11.14;73.17
76994;BME280;66749;47.406;18.822;2023-05-10T02:39:19;100514.44;;;11.14;72.85
76994;BME280;66749;47.406;18.822;2023-05-10T02:39:52;100518.84;;;11.14;72.79
76994;BME280;66749;47.406;18.822;2023-05-10T02:40:25;100517.91;;;11.15;73.08
76994;BME280;66749;47.406;18.822;2023-05-10T02:40:57;100522.53;;;11.09;72.94
76994;BME280;66749;47.406;18.822;2023-05-10T02:41:31;100519.16;;;11.07;72.99
76994;BME280;66749;47.406;18.822;2023-05-10T02:42:03;100526.91;;;11.09;72.99
76994;BME280;66749;47.406;18.822;2023-05-10T02:42:37;100524.22;;;11.10;72.93
76994;BME280;66749;47.406;18.822;2023-05-10T02:43:13;100521.59;;;11.10;73.03
76994;BME280;66749;47.406;18.822;2023-05-10T02:43:47;100525.31;;;11.06;72.66
76994;BME280;66749;47.406;18.822;2023-05-10T02:44:20;100521.03;;;11.05;72.99
76994;BME280;66749;47.406;18.822;2023-05-10T02:44:59;100528.88;;;11.05;72.64
76994;BME280;66749;47.406;18.822;2023-05-10T02:45:32;100530.56;;;11.06;72.99
76994;BME280;66749;47.406;18.822;2023-05-10T02:46:03;100521.03;;;11.05;72.94
76994;BME280;66749;47.406;18.822;2023-05-10T02:46:34;100518.56;;;11.02;73.08
76994;BME280;66749;47.406;18.822;2023-05-10T02:47:04;100518.50;;;11.04;72.93
76994;BME280;66749;47.406;18.822;2023-05-10T02:47:35;100515.22;;;11.00;73.29
76994;BME280;66749;47.406;18.822;2023-05-10T02:48:06;100509.16;;;11.00;73.54
76994;BME280;66749;47.406;18.822;2023-05-10T02:48:37;100523.06;;;11.00;73.91
76994;BME280;66749;47.406;18.822;2023-05-10T02:49:08;100517.72;;;11.02;73.75
76994;BME280;66749;47.406;18.822;2023-05-10T02:49:39;100521.19;;;11.02;73.81
76994;BME280;66749;47.406;18.822;2023-05-10T02:50:10;100522.97;;;11.02;73.36
76994;BME280;66749;47.406;18.822;2023-05-10T02:50:43;100522.03;;;11.03;73.66
76994;BME280;66749;47.406;18.822;2023-05-10T02:51:16;100516.16;;;10.99;73.29
76994;BME280;66749;47.406;18.822;2023-05-10T02:51:51;100521.38;;;10.99;73.26
76994;BME280;66749;47.406;18.822;2023-05-10T02:52:29;100516.25;;;10.98;73.17
76994;BME280;66749;47.406;18.822;2023-05-10T02:53:06;100522.22;;;11.00;73.35
76994;BME280;66749;47.406;18.822;2023-05-10T02:53:42;100518.25;;;10.93;74.05
76994;BME280;66749;47.406;18.822;2023-05-10T02:54:45;100514.91;;;10.91;73.89
76994;BME280;66749;47.406;18.822;2023-05-10T02:55:22;100518.44;;;10.90;73.79
76994;BME280;66749;47.406;18.822;2023-05-10T02:55:59;100514.97;;;10.89;73.95
76994;BME280;66749;47.406;18.822;2023-05-10T02:56:36;100519.19;;;10.92;73.67
76994;BME280;66749;47.406;18.822;2023-05-10T02:57:16;100520.13;;;10.91;73.64
76994;BME280;66749;47.406;18.822;2023-05-10T02:57:52;100513.47;;;10.85;73.58
76994;BME280;66749;47.406;18.822;2023-05-10T02:58:27;100512.53;;;10.86;73.81
76994;BME280;66749;47.406;18.822;2023-05-10T02:58:57;100514.28;;;10.86;73.56
76994;BME280;66749;47.406;18.822;2023-05-10T02:59:28;100509.16;;;10.84;73.68
76994;BME280;66749;47.406;18.822;2023-05-10T02:59:59;100516.06;;;10.85;73.72
76994;BME280;66749;47.406;18.822;2023-05-10T03:00:31;100517.75;;;10.86;73.73
76994;BME280;66749;47.406;18.822;2023-05-10T03:01:01;100519.69;;;10.82;73.86
76994;BME280;66749;47.406;18.822;2023-05-10T03:01:32;100511.97;;;10.81;73.73
76994;BME280;66749;47.406;18.822;2023-05-10T03:02:03;100510.09;;;10.83;73.80
76994;BME280;66749;47.406;18.822;2023-05-10T03:02:34;100512.72;;;10.83;73.85
76994;BME280;66749;47.406;18.822;2023-05-10T03:03:06;100511.03;;;10.82;73.60
76994;BME280;66749;47.406;18.822;2023-05-10T03:03:37;100508.41;;;10.82;73.41